Time;durP1;ratioP1;P1;durP2;ratioP2;P2;SDS_P1;SDS_P2;PMS_P1;PMS_P2;Temp;Humidity;BMP_temperature;BMP_pressure;BME280_temperature;BME280_humidity;BME280_pressure;Samples;Min_cycle;Max_cycle;Signal;HPM_P1;HPM_P2
2023/08/06 00:01:13;;;;;;;2.15;1.58;;;15.50;68.60;;;;;;5015079;28;20093;-71
2023/08/06 00:03:38;;;;;;;4.15;1.88;;;15.40;68.80;;;;;;4997145;28;20045;-73
2023/08/06 00:06:07;;;;;;;2.13;1.52;;;15.40;69.00;;;;;;5014613;28;20442;-72
2023/08/06 00:08:32;;;;;;;5.25;2.08;;;15.30;70.20;;;;;;5014844;28;20502;-71
2023/08/06 00:10:58;;;;;;;3.03;2.20;;;15.30;69.30;;;;;;5014744;28;20057;-71
2023/08/06 00:13:23;;;;;;;4.35;2.20;;;15.30;69.30;;;;;;5014686;28;20033;-72
2023/08/06 00:15:49;;;;;;;4.45;1.88;;;15.30;69.00;;;;;;5014665;28;20029;-71
2023/08/06 00:18:14;;;;;;;4.13;2.33;;;15.30;68.90;;;;;;5014674;28;20026;-73
2023/08/06 00:20:41;;;;;;;4.13;2.50;;;15.20;68.20;;;;;;5014449;28;20508;-73
2023/08/06 00:23:07;;;;;;;4.90;2.20;;;15.30;68.00;;;;;;5014881;28;20096;-72
2023/08/06 00:25:32;;;;;;;2.42;2.00;;;15.20;67.90;;;;;;5014484;28;20459;-73
2023/08/06 00:27:58;;;;;;;3.70;2.58;;;15.20;68.20;;;;;;4996941;28;20022;-74
2023/08/06 00:30:23;;;;;;;3.78;2.28;;;15.20;68.10;;;;;;5014226;28;20417;-73
2023/08/06 00:32:49;;;;;;;4.82;2.60;;;15.20;68.00;;;;;;5014419;28;20407;-72
2023/08/06 00:35:15;;;;;;;4.78;2.20;;;15.20;68.10;;;;;;5014512;28;20508;-72
2023/08/06 00:37:40;;;;;;;6.18;2.28;;;15.20;68.10;;;;;;5012840;28;20485;-72
2023/08/06 00:40:07;;;;;;;7.07;2.35;;;15.30;68.50;;;;;;5014226;28;20105;-73
2023/08/06 00:42:34;;;;;;;3.15;2.03;;;15.30;67.50;;;;;;5014348;28;20049;-73
2023/08/06 00:45:00;;;;;;;3.78;2.03;;;15.30;67.10;;;;;;5013991;28;20022;-72
2023/08/06 00:47:26;;;;;;;3.50;2.45;;;15.30;67.40;;;;;;5014086;28;20038;-72
2023/08/06 00:49:52;;;;;;;3.88;2.22;;;15.30;67.60;;;;;;5014167;28;20076;-73
2023/08/06 00:52:17;;;;;;;5.85;2.30;;;15.30;67.50;;;;;;5014021;28;20032;-72
2023/08/06 00:54:43;;;;;;;4.10;2.13;;;15.30;67.60;;;;;;4995868;28;20037;-73
2023/08/06 00:57:09;;;;;;;4.40;2.40;;;15.40;67.70;;;;;;5013922;28;20025;-72
2023/08/06 00:59:35;;;;;;;4.75;2.20;;;15.30;67.50;;;;;;5013948;28;20032;-73
2023/08/06 01:02:00;;;;;;;5.13;2.50;;;15.30;67.20;;;;;;5013986;28;20030;-72
2023/08/06 01:04:26;;;;;;;5.10;2.55;;;15.40;67.10;;;;;;5013659;28;20129;-72
2023/08/06 01:07:10;;;;;;;2.22;1.65;;;15.40;66.70;;;;;;5018333;28;20033;-73
2023/08/06 01:09:42;;;;;;;2.85;1.88;;;15.40;66.80;;;;;;5013960;28;20041;-74
2023/08/06 01:12:39;;;;;;;3.97;1.90;;;15.40;66.70;;;;;;5013722;28;20022;-72
2023/08/06 01:15:17;;;;;;;2.78;1.70;;;15.40;66.90;;;;;;5010173;28;20044;-72
2023/08/06 01:17:44;;;;;;;3.78;1.85;;;15.40;66.50;;;;;;5013763;28;20044;-72
2023/08/06 01:20:10;;;;;;;4.75;1.80;;;15.40;66.50;;;;;;5013405;28;20475;-72
2023/08/06 01:22:36;;;;;;;3.85;2.05;;;15.50;66.80;;;;;;5013402;28;20045;-72
2023/08/06 01:25:01;;;;;;;4.32;2.08;;;15.50;66.00;;;;;;5012858;28;20033;-72
2023/08/06 01:27:44;;;;;;;3.10;1.77;;;15.50;65.90;;;;;;5013514;28;20467;-74
2023/08/06 01:30:17;;;;;;;2.97;1.75;;;15.40;66.20;;;;;;5013220;28;20032;-73
2023/08/06 01:32:45;;;;;;;2.30;1.50;;;15.40;66.60;;;;;;5013298;28;20022;-74
2023/08/06 01:35:13;;;;;;;3.10;1.73;;;15.40;66.30;;;;;;5013636;28;20032;-72
2023/08/06 01:37:40;;;;;;;3.35;1.70;;;15.40;66.50;;;;;;5012026;28;20503;-73
2023/08/06 01:40:11;;;;;;;2.58;1.30;;;15.40;66.90;;;;;;5013447;28;20447;-72
2023/08/06 01:42:37;;;;;;;3.17;1.42;;;15.30;67.20;;;;;;5013488;28;20034;-72
2023/08/06 01:45:03;;;;;;;2.42;1.40;;;15.30;67.50;;;;;;5013177;28;20034;-73
2023/08/06 01:47:28;;;;;;;1.90;1.15;;;15.20;67.70;;;;;;5013631;28;20032;-72
2023/08/06 01:49:54;;;;;;;2.17;1.38;;;15.20;68.10;;;;;;5013325;28;20033;-72
2023/08/06 01:52:19;;;;;;;1.23;1.10;;;15.20;68.50;;;;;;5013201;28;20101;-72
2023/08/06 01:54:45;;;;;;;1.85;1.30;;;15.20;68.50;;;;;;5013194;28;20036;-73
2023/08/06 01:57:10;;;;;;;3.95;1.38;;;15.30;68.50;;;;;;5013185;28;20076;-73
2023/08/06 01:59:36;;;;;;;2.45;1.25;;;15.30;68.40;;;;;;5013167;28;20030;-72
2023/08/06 02:02:02;;;;;;;3.15;1.38;;;15.30;68.40;;;;;;5013113;28;20033;-73
2023/08/06 02:04:27;;;;;;;4.20;1.40;;;15.20;68.40;;;;;;5012826;28;20068;-72
2023/08/06 02:06:53;;;;;;;2.42;1.23;;;15.20;68.80;;;;;;5014469;28;20037;-72
2023/08/06 02:09:18;;;;;;;3.08;1.75;;;15.10;69.20;;;;;;5017039;28;20030;-73
2023/08/06 02:11:44;;;;;;;2.17;1.30;;;15.10;69.60;;;;;;5017100;28;20029;-73
2023/08/06 02:14:09;;;;;;;1.65;1.40;;;15.00;70.10;;;;;;5016959;28;20022;-72
2023/08/06 02:16:35;;;;;;;6.78;1.60;;;15.00;70.60;;;;;;5016936;28;20026;-73
2023/08/06 02:19:00;;;;;;;1.90;1.20;;;15.00;70.40;;;;;;5017266;28;20042;-72
2023/08/06 02:21:26;;;;;;;1.60;1.42;;;15.00;70.70;;;;;;5017007;28;20057;-74
2023/08/06 02:23:51;;;;;;;3.92;1.30;;;15.00;70.60;;;;;;5020307;28;20026;-73
2023/08/06 02:26:17;;;;;;;3.42;1.52;;;15.00;70.50;;;;;;5016869;28;20029;-75
2023/08/06 02:28:42;;;;;;;3.67;1.52;;;15.10;70.70;;;;;;5016722;28;20030;-72
2023/08/06 02:31:08;;;;;;;2.67;1.60;;;15.10;70.80;;;;;;5016615;28;20072;-74
2023/08/06 02:33:33;;;;;;;2.45;1.45;;;15.10;70.80;;;;;;5016736;28;20018;-74
2023/08/06 02:36:01;;;;;;;2.58;1.52;;;15.20;70.70;;;;;;5016804;28;20374;-72
2023/08/06 02:38:27;;;;;;;2.60;1.40;;;15.10;70.50;;;;;;5016830;28;20034;-72
2023/08/06 02:40:52;;;;;;;3.38;1.25;;;15.20;70.50;;;;;;5016536;28;20033;-72
2023/08/06 02:43:18;;;;;;;2.78;1.33;;;15.20;70.90;;;;;;5016664;28;20475;-72
2023/08/06 02:45:43;;;;;;;1.92;1.42;;;15.20;70.70;;;;;;5016322;28;20045;-72
2023/08/06 02:48:09;;;;;;;3.58;1.50;;;15.20;70.20;;;;;;5015973;28;20042;-71
2023/08/06 02:50:41;;;;;;;3.13;1.30;;;15.30;70.40;;;;;;4998794;28;20018;-73
2023/08/06 02:53:08;;;;;;;4.18;1.70;;;15.20;70.50;;;;;;5016329;28;20038;-73
2023/08/06 02:55:34;;;;;;;4.88;1.65;;;15.20;71.20;;;;;;5016114;28;20025;-73
2023/08/06 02:58:00;;;;;;;2.60;1.50;;;15.20;71.50;;;;;;5016161;28;20084;-72
2023/08/06 03:00:26;;;;;;;1.63;1.20;;;15.20;72.10;;;;;;4998597;28;20102;-72
2023/08/06 03:02:52;;;;;;;4.93;1.40;;;15.10;72.90;;;;;;5016192;28;20026;-72
2023/08/06 03:05:18;;;;;;;4.28;1.77;;;15.10;72.30;;;;;;5015811;28;20402;-72
2023/08/06 03:07:43;;;;;;;3.20;1.55;;;15.10;72.70;;;;;;5016049;28;20030;-73
2023/08/06 03:10:09;;;;;;;3.60;1.70;;;15.00;73.20;;;;;;5015883;28;20041;-72
2023/08/06 03:12:35;;;;;;;2.60;1.65;;;15.00;73.40;;;;;;5015795;28;20054;-72
2023/08/06 03:15:00;;;;;;;2.08;1.25;;;15.00;75.10;;;;;;5016001;28;20037;-72
2023/08/06 03:17:26;;;;;;;3.05;1.63;;;14.90;75.10;;;;;;5015840;28;20030;-72
2023/08/06 03:19:51;;;;;;;5.93;1.80;;;14.80;76.80;;;;;;5015938;28;20030;-71
2023/08/06 03:22:17;;;;;;;3.05;1.48;;;14.70;79.00;;;;;;5015730;28;20022;-74
2023/08/06 03:24:42;;;;;;;3.40;1.60;;;14.50;80.70;;;;;;5015784;28;20482;-73
2023/08/06 03:27:08;;;;;;;8.63;2.05;;;14.40;81.90;;;;;;5015836;28;20084;-72
2023/08/06 03:29:33;;;;;;;3.65;1.63;;;14.40;81.50;;;;;;5015715;28;20034;-72
2023/08/06 03:31:59;;;;;;;5.60;1.80;;;14.30;80.80;;;;;;5015732;28;20025;-72
2023/08/06 03:34:24;;;;;;;6.03;1.70;;;14.30;82.50;;;;;;5015598;28;20030;-72
2023/08/06 03:36:50;;;;;;;6.30;1.75;;;14.20;81.90;;;;;;5015563;28;20084;-72
2023/08/06 03:39:15;;;;;;;7.97;1.92;;;14.10;83.10;;;;;;5015693;28;20026;-73
2023/08/06 03:41:41;;;;;;;2.50;1.50;;;14.10;84.40;;;;;;5015619;28;20060;-72
2023/08/06 03:44:06;;;;;;;3.63;1.80;;;14.20;83.40;;;;;;5016383;28;20042;-72
2023/08/06 03:46:33;;;;;;;4.78;1.90;;;14.20;84.40;;;;;;5016708;28;20113;-72
2023/08/06 03:48:59;;;;;;;3.45;1.83;;;14.20;82.50;;;;;;5015257;28;20025;-72
2023/08/06 03:51:25;;;;;;;3.60;1.70;;;14.10;81.90;;;;;;5015260;28;20030;-71
2023/08/06 03:53:50;;;;;;;5.78;2.13;;;14.10;82.50;;;;;;5015155;28;20021;-73
2023/08/06 03:56:16;;;;;;;2.33;1.30;;;14.10;82.50;;;;;;5015214;28;20025;-73
2023/08/06 03:58:42;;;;;;;3.10;1.35;;;14.00;81.90;;;;;;5015035;28;20034;-71
2023/08/06 04:01:07;;;;;;;3.22;1.48;;;14.00;83.30;;;;;;5015235;28;20029;-72
2023/08/06 04:03:33;;;;;;;2.30;0.98;;;13.90;83.00;;;;;;5015042;28;20033;-71
2023/08/06 04:05:59;;;;;;;3.65;1.30;;;13.90;82.40;;;;;;5014795;28;20477;-73
2023/08/06 04:08:24;;;;;;;2.53;1.08;;;13.90;83.00;;;;;;5015018;28;20025;-72
2023/08/06 04:10:53;;;;;;;3.45;1.27;;;13.90;83.10;;;;;;4997466;28;20021;-74
2023/08/06 04:13:19;;;;;;;2.15;0.98;;;13.80;83.00;;;;;;5014862;28;20026;-71
2023/08/06 04:15:45;;;;;;;4.47;1.15;;;13.90;82.10;;;;;;5014836;28;20057;-72
2023/08/06 04:18:10;;;;;;;3.88;1.10;;;13.90;82.10;;;;;;5014865;28;20049;-72
2023/08/06 04:20:45;;;;;;;2.60;0.88;;;13.90;81.90;;;;;;5014778;28;20026;-73
2023/08/06 04:23:11;;;;;;;1.60;0.60;;;14.00;80.50;;;;;;5014940;28;20033;-72
2023/08/06 04:25:37;;;;;;;1.90;0.90;;;13.90;79.70;;;;;;5014432;28;20042;-72
2023/08/06 04:28:02;;;;;;;2.00;0.80;;;13.90;79.60;;;;;;5014622;28;20034;-72
2023/08/06 04:30:28;;;;;;;5.25;0.98;;;13.80;78.20;;;;;;5014032;28;20474;-72
2023/08/06 04:32:53;;;;;;;3.03;0.70;;;13.70;77.80;;;;;;5014674;28;20049;-72
2023/08/06 04:35:19;;;;;;;2.40;0.80;;;13.60;78.40;;;;;;5014360;28;20061;-72
2023/08/06 04:37:45;;;;;;;2.17;0.60;;;13.60;77.00;;;;;;5014451;28;20032;-72
2023/08/06 04:40:10;;;;;;;2.70;0.60;;;13.60;77.50;;;;;;5014137;28;20025;-73
2023/08/06 04:42:36;;;;;;;3.17;0.65;;;13.50;76.60;;;;;;4996785;28;20021;-72
2023/08/06 04:45:02;;;;;;;1.88;0.70;;;13.50;76.50;;;;;;5014497;28;20565;-72
2023/08/06 04:47:28;;;;;;;2.22;0.52;;;13.40;77.40;;;;;;5014264;28;20018;-72
2023/08/06 04:49:54;;;;;;;2.63;0.50;;;13.40;78.20;;;;;;5014119;28;20033;-72
2023/08/06 04:52:19;;;;;;;2.80;0.60;;;13.40;77.50;;;;;;5014095;28;20018;-72
2023/08/06 04:54:45;;;;;;;1.60;0.68;;;13.40;77.60;;;;;;5014099;28;20446;-72
2023/08/06 04:57:10;;;;;;;1.42;0.52;;;13.50;77.30;;;;;;5013984;28;20037;-73
2023/08/06 04:59:36;;;;;;;1.42;0.75;;;13.50;76.70;;;;;;5014156;28;20022;-72
2023/08/06 05:02:01;;;;;;;1.50;0.63;;;13.40;77.50;;;;;;4998585;28;20058;-72
2023/08/06 05:04:28;;;;;;;0.85;0.35;;;13.50;76.90;;;;;;5013728;28;20042;-72
2023/08/06 05:06:53;;;;;;;1.73;0.38;;;13.60;77.40;;;;;;5014633;28;20081;-72
2023/08/06 05:09:19;;;;;;;1.92;0.63;;;13.60;76.50;;;;;;5013759;28;20494;-73
2023/08/06 05:11:46;;;;;;;1.80;0.40;;;13.70;76.00;;;;;;5014015;28;20066;-72
2023/08/06 05:14:12;;;;;;;1.38;0.70;;;13.80;75.90;;;;;;5013767;28;20413;-72
2023/08/06 05:16:37;;;;;;;3.90;0.50;;;13.90;76.10;;;;;;5014087;28;20112;-73
2023/08/06 05:19:03;;;;;;;1.05;0.60;;;13.90;76.70;;;;;;5013667;28;20049;-72
2023/08/06 05:21:28;;;;;;;2.55;0.43;;;13.90;76.80;;;;;;5031284;28;20033;-72
2023/08/06 05:23:54;;;;;;;1.52;0.52;;;13.90;76.10;;;;;;5032587;28;20023;-72
2023/08/06 05:26:20;;;;;;;1.77;0.73;;;13.90;76.20;;;;;;5032988;28;20037;-71
2023/08/06 05:28:46;;;;;;;0.63;0.30;;;13.90;76.80;;;;;;5033154;28;20538;-72
2023/08/06 05:31:12;;;;;;;1.63;0.40;;;13.90;76.60;;;;;;5033259;28;20591;-72
2023/08/06 05:33:37;;;;;;;2.67;0.50;;;13.90;76.70;;;;;;5033198;28;20369;-73
2023/08/06 05:36:03;;;;;;;1.45;0.60;;;13.90;76.60;;;;;;5033261;28;20100;-71
2023/08/06 05:38:29;;;;;;;3.03;0.60;;;14.00;76.00;;;;;;5033028;28;20159;-72
2023/08/06 05:40:56;;;;;;;2.58;0.70;;;14.00;75.70;;;;;;5032485;28;20022;-72
2023/08/06 05:43:22;;;;;;;0.95;0.43;;;14.00;75.70;;;;;;5033111;28;20030;-72
2023/08/06 05:45:50;;;;;;;1.92;0.38;;;14.00;75.80;;;;;;5033096;28;20037;-73
2023/08/06 05:48:15;;;;;;;0.60;0.40;;;14.00;76.00;;;;;;5033129;28;20025;-72
2023/08/06 05:50:41;;;;;;;0.43;0.35;;;13.90;75.30;;;;;;5033037;28;20029;-72
2023/08/06 05:53:07;;;;;;;0.60;0.40;;;13.90;75.00;;;;;;5015132;28;20404;-72
2023/08/06 05:55:33;;;;;;;3.20;0.60;;;13.90;75.70;;;;;;5032922;28;20029;-72
2023/08/06 05:57:59;;;;;;;0.75;0.38;;;13.80;75.10;;;;;;5032927;28;20025;-72
2023/08/06 06:00:24;;;;;;;0.70;0.35;;;13.80;76.10;;;;;;5032828;28;20079;-72
2023/08/06 06:02:50;;;;;;;1.13;0.30;;;13.80;77.00;;;;;;5032794;28;20030;-72
2023/08/06 06:05:16;;;;;;;0.77;0.40;;;13.90;77.40;;;;;;5032597;28;20057;-73
2023/08/06 06:07:41;;;;;;;0.80;0.50;;;13.90;76.40;;;;;;5032722;28;20453;-71
2023/08/06 06:10:07;;;;;;;1.73;0.30;;;13.80;76.40;;;;;;5032783;28;20112;-71
2023/08/06 06:12:33;;;;;;;1.38;0.30;;;13.80;77.20;;;;;;5032708;28;20022;-71
2023/08/06 06:15:00;;;;;;;1.63;0.30;;;13.80;77.70;;;;;;5015138;28;20033;-72
2023/08/06 06:17:26;;;;;;;1.08;0.22;;;13.80;78.00;;;;;;5033095;28;20022;-72
2023/08/06 06:19:52;;;;;;;2.17;0.90;;;13.70;78.50;;;;;;5032710;28;20033;-73
2023/08/06 06:22:17;;;;;;;0.77;0.35;;;13.60;79.30;;;;;;5032521;28;20022;-73
2023/08/06 06:24:43;;;;;;;0.90;0.30;;;13.60;78.50;;;;;;5032449;28;20037;-73
2023/08/06 06:27:09;;;;;;;0.38;0.20;;;13.60;79.40;;;;;;5032933;28;20026;-72
2023/08/06 06:29:34;;;;;;;2.10;0.38;;;13.70;78.50;;;;;;5035656;28;20120;-72
2023/08/06 06:32:00;;;;;;;0.70;0.40;;;13.70;78.50;;;;;;5034276;28;20017;-73
2023/08/06 06:34:25;;;;;;;2.33;1.05;;;13.80;77.20;;;;;;5032919;28;20028;-73
2023/08/06 06:36:51;;;;;;;1.02;0.35;;;13.80;77.50;;;;;;5032482;28;20068;-73
2023/08/06 06:39:17;;;;;;;2.65;0.47;;;13.90;77.90;;;;;;5032469;28;20212;-73
2023/08/06 06:41:44;;;;;;;1.88;0.30;;;13.90;78.40;;;;;;5032351;28;20121;-72
2023/08/06 06:44:09;;;;;;;0.73;0.20;;;13.80;79.10;;;;;;5032316;28;20014;-72
2023/08/06 06:46:35;;;;;;;0.73;0.20;;;13.80;79.10;;;;;;5032513;28;20034;-73
2023/08/06 06:49:00;;;;;;;0.20;0.10;;;13.70;79.00;;;;;;5032435;28;20089;-72
2023/08/06 06:51:26;;;;;;;0.30;0.20;;;13.70;78.70;;;;;;5032377;28;20049;-73
2023/08/06 06:53:52;;;;;;;0.47;0.15;;;13.90;78.40;;;;;;5034988;28;20030;-73
2023/08/06 06:56:17;;;;;;;1.35;0.25;;;13.80;78.20;;;;;;5036127;28;20044;-73
2023/08/06 06:58:43;;;;;;;0.60;0.20;;;13.80;78.30;;;;;;5036139;28;20053;-72
2023/08/06 07:01:11;;;;;;;0.13;0.10;;;13.80;77.80;;;;;;5035995;28;20026;-73
2023/08/06 07:03:37;;;;;;;0.60;0.45;;;13.70;79.30;;;;;;5036034;28;20026;-72
2023/08/06 07:06:03;;;;;;;0.80;0.20;;;13.80;78.60;;;;;;5035797;28;20111;-74
2023/08/06 07:08:29;;;;;;;0.77;0.10;;;13.70;78.70;;;;;;5035699;28;20370;-72
2023/08/06 07:11:05;;;;;;;0.63;0.10;;;13.70;77.80;;;;;;5035761;28;20025;-74
2023/08/06 07:13:31;;;;;;;0.17;0.10;;;13.60;79.50;;;;;;5035896;28;20068;-73
2023/08/06 07:15:57;;;;;;;0.60;0.10;;;13.60;79.80;;;;;;5017993;28;20045;-70
2023/08/06 07:18:23;;;;;;;0.30;0.20;;;13.60;79.00;;;;;;5035615;28;20048;-71
2023/08/06 07:20:50;;;;;;;0.95;0.13;;;13.80;79.00;;;;;;5035570;28;20493;-70
2023/08/06 07:23:16;;;;;;;0.50;0.10;;;13.80;78.10;;;;;;5035538;28;20477;-69
2023/08/06 07:25:41;;;;;;;0.77;0.17;;;13.70;77.10;;;;;;5035425;28;20046;-69
2023/08/06 07:28:07;;;;;;;0.28;0.15;;;13.70;78.00;;;;;;5035515;28;20048;-70
2023/08/06 07:30:32;;;;;;;0.30;0.17;;;13.80;78.10;;;;;;5035312;28;20029;-71
2023/08/06 07:32:58;;;;;;;0.82;0.10;;;13.90;78.40;;;;;;5035341;28;20070;-70
2023/08/06 07:35:23;;;;;;;0.52;0.10;;;13.80;78.60;;;;;;5035410;28;20424;-70
2023/08/06 07:37:49;;;;;;;0.20;0.20;;;13.80;78.40;;;;;;5035397;28;20423;-70
2023/08/06 07:40:14;;;;;;;0.43;0.10;;;13.70;78.10;;;;;;5035296;28;20569;-70
2023/08/06 07:42:40;;;;;;;0.10;0.10;;;13.60;78.40;;;;;;5017081;28;20110;-70
2023/08/06 07:45:07;;;;;;;1.75;0.30;;;13.60;79.60;;;;;;5035093;28;20048;-69
2023/08/06 07:47:32;;;;;;;0.80;0.13;;;13.50;79.90;;;;;;5035602;28;20389;-70
2023/08/06 07:49:58;;;;;;;1.75;0.10;;;13.40;80.70;;;;;;5035235;28;20092;-70
2023/08/06 07:52:23;;;;;;;0.25;0.00;;;13.30;80.50;;;;;;5038083;28;20029;-70
2023/08/06 07:54:49;;;;;;;0.25;0.25;;;13.40;81.50;;;;;;5017281;28;20087;-70
2023/08/06 07:57:15;;;;;;;0.93;0.40;;;13.30;81.10;;;;;;5017206;28;20417;-70
2023/08/06 07:59:40;;;;;;;0.40;0.10;;;13.30;81.30;;;;;;5035006;28;20045;-71
2023/08/06 08:02:06;;;;;;;0.10;0.10;;;13.30;81.30;;;;;;5034761;28;20418;-70
2023/08/06 08:04:31;;;;;;;1.80;0.22;;;13.30;81.10;;;;;;5026332;28;20405;-69
2023/08/06 08:06:57;;;;;;;0.93;0.00;;;13.40;82.00;;;;;;4997388;28;20030;-69
2023/08/06 08:09:23;;;;;;;2.10;0.20;;;13.30;80.40;;;;;;5014763;28;20033;-69
2023/08/06 08:11:49;;;;;;;0.30;0.10;;;13.30;81.80;;;;;;5014932;28;20026;-69
2023/08/06 08:14:14;;;;;;;0.10;0.00;;;13.30;80.60;;;;;;5015152;28;20026;-70
2023/08/06 08:16:40;;;;;;;0.77;0.22;;;13.40;79.80;;;;;;5014826;28;20061;-71
2023/08/06 08:19:06;;;;;;;0.40;0.30;;;13.30;81.50;;;;;;5014737;28;20101;-70
2023/08/06 08:21:31;;;;;;;0.30;0.08;;;13.30;81.40;;;;;;5015052;28;20113;-69
2023/08/06 08:23:58;;;;;;;0.50;0.50;;;13.30;80.80;;;;;;5016018;28;20030;-90
2023/08/06 08:26:24;;;;;;;0.10;0.00;;;13.40;82.00;;;;;;5014670;28;20045;-69
2023/08/06 08:28:50;;;;;;;0.30;0.05;;;13.50;80.40;;;;;;5014652;28;20026;-70
2023/08/06 08:31:16;;;;;;;0.68;0.20;;;13.50;80.40;;;;;;5014650;28;20076;-82
2023/08/06 08:33:42;;;;;;;0.15;0.13;;;13.70;80.70;;;;;;5014589;28;20018;-70
2023/08/06 08:36:09;;;;;;;0.10;0.10;;;13.70;79.90;;;;;;5014458;28;20489;-71
2023/08/06 08:38:35;;;;;;;0.20;0.17;;;13.70;79.90;;;;;;5015065;28;20085;-70
2023/08/06 08:41:00;;;;;;;0.85;0.10;;;13.70;80.90;;;;;;5014858;28;20100;-70
2023/08/06 08:43:27;;;;;;;0.32;0.00;;;13.80;80.30;;;;;;5014225;28;20497;-71
2023/08/06 08:46:00;;;;;;;0.63;0.00;;;14.00;79.50;;;;;;5002602;28;20038;-70
2023/08/06 08:48:26;;;;;;;1.10;0.20;;;14.00;79.00;;;;;;5001451;28;20105;-71
2023/08/06 08:50:52;;;;;;;1.10;0.10;;;14.00;78.70;;;;;;5005340;28;20051;-73
2023/08/06 08:53:18;;;;;;;0.65;0.30;;;13.80;79.60;;;;;;4979791;28;20026;-69
2023/08/06 08:55:48;;;;;;;0.82;0.20;;;13.80;79.70;;;;;;4994547;28;20044;-69
2023/08/06 08:58:14;;;;;;;0.50;0.30;;;13.80;81.10;;;;;;4994330;28;20041;-69
2023/08/06 09:00:42;;;;;;;1.27;0.20;;;13.80;82.00;;;;;;4994365;28;20038;-70
2023/08/06 09:03:08;;;;;;;0.10;0.10;;;13.70;80.50;;;;;;4994777;28;20022;-73
2023/08/06 09:05:35;;;;;;;0.20;0.20;;;13.70;80.50;;;;;;5009795;28;20455;-70
2023/08/06 09:08:03;;;;;;;0.17;0.10;;;13.60;81.20;;;;;;5013902;28;20657;-72
2023/08/06 09:10:29;;;;;;;0.10;0.10;;;13.70;81.30;;;;;;5016686;28;20603;-71
2023/08/06 09:12:57;;;;;;;0.20;0.10;;;13.60;82.30;;;;;;5014303;28;20023;-71
2023/08/06 09:15:26;;;;;;;1.02;0.10;;;13.80;82.30;;;;;;5013538;28;20105;-71
2023/08/06 09:17:55;;;;;;;0.05;0.00;;;13.80;79.90;;;;;;5013638;28;20042;-73
2023/08/06 09:20:20;;;;;;;0.10;0.00;;;13.80;78.50;;;;;;5013767;28;20017;-70
2023/08/06 09:22:47;;;;;;;0.30;0.10;;;13.80;79.10;;;;;;5013502;28;20493;-71
2023/08/06 09:25:25;;;;;;;0.20;0.10;;;14.00;80.00;;;;;;5013483;28;20060;-71
2023/08/06 09:27:51;;;;;;;0.10;0.10;;;14.00;79.20;;;;;;5013527;28;20022;-71
2023/08/06 09:30:33;;;;;;;0.82;0.20;;;14.10;80.40;;;;;;5013488;28;20026;-71
2023/08/06 09:32:59;;;;;;;0.57;0.10;;;14.20;78.90;;;;;;5013558;28;20030;-72
2023/08/06 09:35:28;;;;;;;0.10;0.10;;;14.40;77.70;;;;;;5013407;28;20068;-76
2023/08/06 09:37:54;;;;;;;1.73;0.20;;;14.50;79.00;;;;;;5013441;28;20424;-72
2023/08/06 09:40:30;;;;;;;0.10;0.10;;;14.70;78.70;;;;;;5013350;28;20064;-72
2023/08/06 09:42:57;;;;;;;0.30;0.10;;;15.00;77.10;;;;;;5013239;28;20154;-71
2023/08/06 09:45:27;;;;;;;0.30;0.30;;;15.10;74.30;;;;;;5013282;28;20067;-71
2023/08/06 09:47:57;;;;;;;0.20;0.10;;;15.10;74.60;;;;;;5013371;28;20026;-71
2023/08/06 09:50:23;;;;;;;0.65;0.10;;;15.00;74.50;;;;;;5013236;28;20034;-73
2023/08/06 09:52:50;;;;;;;0.45;0.10;;;15.00;74.70;;;;;;5013086;28;20108;-72
2023/08/06 09:55:16;;;;;;;0.17;0.00;;;14.90;75.40;;;;;;5013264;28;20034;-71
2023/08/06 09:57:42;;;;;;;0.13;0.10;;;14.70;76.30;;;;;;5013141;28;20088;-71
2023/08/06 10:00:10;;;;;;;0.40;0.20;;;14.50;78.00;;;;;;5013240;28;20489;-71
2023/08/06 10:02:38;;;;;;;0.65;0.00;;;14.40;78.70;;;;;;5013177;28;20101;-71
2023/08/06 10:05:04;;;;;;;0.00;0.00;;;14.20;79.70;;;;;;5012902;28;20045;-72
2023/08/06 10:07:31;;;;;;;0.38;0.17;;;14.30;80.80;;;;;;5013147;28;20040;-70
2023/08/06 10:09:56;;;;;;;0.10;0.10;;;14.30;80.80;;;;;;4995470;28;20438;-71
2023/08/06 10:12:24;;;;;;;0.80;0.10;;;14.40;80.30;;;;;;5013170;28;20065;-71
2023/08/06 10:14:52;;;;;;;0.68;0.10;;;14.60;79.60;;;;;;5013295;28;20030;-71
2023/08/06 10:17:18;;;;;;;0.15;0.10;;;14.60;78.60;;;;;;4996017;28;20382;-76
2023/08/06 10:19:45;;;;;;;0.10;0.05;;;14.70;79.20;;;;;;5014004;28;20026;-71
2023/08/06 10:22:12;;;;;;;0.10;0.00;;;14.90;79.00;;;;;;5014236;28;20029;-77
2023/08/06 10:24:48;;;;;;;0.55;0.20;;;14.90;79.40;;;;;;5013046;28;20102;-71
2023/08/06 10:27:13;;;;;;;0.03;0.00;;;14.80;77.70;;;;;;5013206;28;20052;-73
2023/08/06 10:29:39;;;;;;;0.85;0.40;;;14.70;78.10;;;;;;4999476;28;20026;-72
2023/08/06 10:32:05;;;;;;;0.15;0.10;;;14.50;78.00;;;;;;5020517;28;20025;-72
2023/08/06 10:34:58;;;;;;;0.30;0.30;;;14.60;77.80;;;;;;5017379;28;20034;-76
2023/08/06 10:37:35;;;;;;;0.22;0.10;;;14.70;77.10;;;;;;5016722;28;20018;-73
2023/08/06 10:40:01;;;;;;;0.00;0.00;;;14.80;76.70;;;;;;4999326;28;20109;-71
2023/08/06 10:42:31;;;;;;;0.75;0.20;;;14.90;78.70;;;;;;5016514;28;20030;-71
2023/08/06 10:45:18;;;;;;;0.20;0.10;;;14.80;78.00;;;;;;5016681;28;20463;-76
2023/08/06 10:47:46;;;;;;;0.35;0.20;;;14.70;78.20;;;;;;5016300;28;20033;-71
2023/08/06 10:50:13;;;;;;;1.50;0.05;;;14.70;78.80;;;;;;5016347;28;20033;-71
2023/08/06 10:52:40;;;;;;;1.10;0.30;;;14.70;78.50;;;;;;5016296;28;20029;-71
2023/08/06 10:55:06;;;;;;;0.10;0.10;;;14.60;79.30;;;;;;5016322;28;20425;-71
2023/08/06 10:57:31;;;;;;;1.55;0.10;;;14.80;79.50;;;;;;5016417;28;20025;-74
2023/08/06 10:59:57;;;;;;;0.98;0.10;;;15.00;79.30;;;;;;5016507;28;20381;-71
2023/08/06 11:02:23;;;;;;;0.10;0.10;;;15.30;77.20;;;;;;5016276;28;20443;-72
2023/08/06 11:04:48;;;;;;;0.10;0.03;;;15.20;77.80;;;;;;5015843;28;20057;-71
2023/08/06 11:07:14;;;;;;;0.22;0.10;;;15.10;78.30;;;;;;5016052;28;20026;-71
2023/08/06 11:09:39;;;;;;;0.13;0.13;;;15.10;77.10;;;;;;5016140;28;20075;-71
2023/08/06 11:12:11;;;;;;;0.03;0.00;;;15.00;78.70;;;;;;5016100;28;20087;-71
2023/08/06 11:14:38;;;;;;;0.28;0.20;;;14.80;79.20;;;;;;5016108;28;20391;-72
2023/08/06 11:17:05;;;;;;;0.15;0.05;;;14.80;80.90;;;;;;5016079;28;20030;-71
2023/08/06 11:19:30;;;;;;;0.20;0.10;;;14.90;79.30;;;;;;4998347;28;20075;-71
2023/08/06 11:21:56;;;;;;;0.47;0.10;;;14.80;79.80;;;;;;4998450;28;20470;-72
2023/08/06 11:24:24;;;;;;;0.10;0.10;;;14.70;78.70;;;;;;5019047;28;20029;-71
2023/08/06 11:26:49;;;;;;;0.25;0.10;;;14.70;80.60;;;;;;5016011;28;20057;-72
2023/08/06 11:29:15;;;;;;;0.28;0.20;;;14.80;81.30;;;;;;5015847;28;20108;-71
2023/08/06 11:31:41;;;;;;;0.98;0.22;;;14.80;81.60;;;;;;5015567;28;20173;-71
2023/08/06 11:34:07;;;;;;;0.20;0.20;;;14.80;82.20;;;;;;5015618;28;20142;-71
2023/08/06 11:36:33;;;;;;;0.10;0.10;;;14.80;79.80;;;;;;5015721;28;20030;-71
2023/08/06 11:39:05;;;;;;;0.63;0.30;;;14.80;82.40;;;;;;5015223;28;20033;-71
2023/08/06 11:41:31;;;;;;;0.20;0.10;;;15.00;79.60;;;;;;4998687;28;20022;-71
2023/08/06 11:43:56;;;;;;;0.20;0.20;;;14.90;79.20;;;;;;5015819;28;20356;-71
2023/08/06 11:46:23;;;;;;;0.25;0.20;;;14.80;78.60;;;;;;5015434;28;20038;-75
2023/08/06 11:48:55;;;;;;;0.32;0.10;;;14.70;79.40;;;;;;5015624;28;20426;-74
2023/08/06 11:51:27;;;;;;;0.63;0.20;;;14.80;78.40;;;;;;5015745;28;20033;-71
2023/08/06 11:53:57;;;;;;;3.10;0.40;;;14.80;79.00;;;;;;5015923;28;20028;-72
2023/08/06 11:56:24;;;;;;;1.40;0.30;;;14.80;77.70;;;;;;5016236;28;20033;-71
2023/08/06 11:58:49;;;;;;;1.25;0.38;;;14.80;78.40;;;;;;5015798;28;20080;-72
2023/08/06 12:01:15;;;;;;;1.58;0.60;;;14.90;79.30;;;;;;5015713;28;20034;-72
2023/08/06 12:03:40;;;;;;;0.77;0.60;;;14.80;77.50;;;;;;5014932;28;20547;-72
2023/08/06 12:06:09;;;;;;;0.43;0.38;;;14.40;76.90;;;;;;5014975;28;20041;-71
2023/08/06 12:08:35;;;;;;;1.55;0.70;;;14.30;77.00;;;;;;5014941;28;20030;-71
2023/08/06 12:11:01;;;;;;;0.88;0.70;;;14.20;76.80;;;;;;5015195;28;20056;-71
2023/08/06 12:13:27;;;;;;;0.70;0.70;;;14.10;77.90;;;;;;5015180;28;20438;-71
2023/08/06 12:15:54;;;;;;;3.30;1.08;;;14.00;78.60;;;;;;5014818;28;20033;-71
2023/08/06 12:18:20;;;;;;;1.10;0.90;;;14.00;78.20;;;;;;5014905;28;20534;-72
2023/08/06 12:20:45;;;;;;;1.00;0.70;;;13.90;80.00;;;;;;5015630;28;20037;-80
2023/08/06 12:23:15;;;;;;;1.35;0.88;;;14.00;79.30;;;;;;5016469;28;20045;-78
2023/08/06 12:25:41;;;;;;;2.50;1.02;;;13.80;80.70;;;;;;5014932;28;20034;-72
2023/08/06 12:28:07;;;;;;;0.77;0.75;;;13.80;79.80;;;;;;5014828;28;20077;-71
2023/08/06 12:30:33;;;;;;;1.15;0.73;;;13.90;80.40;;;;;;5014667;28;20084;-72
2023/08/06 12:32:58;;;;;;;1.90;0.80;;;14.10;79.40;;;;;;5014635;28;20034;-71
2023/08/06 12:35:25;;;;;;;0.43;0.40;;;14.20;79.20;;;;;;5014567;28;20053;-71
2023/08/06 12:37:54;;;;;;;1.38;0.40;;;14.20;78.80;;;;;;5014579;28;20471;-72
2023/08/06 12:40:20;;;;;;;1.23;0.52;;;14.20;75.90;;;;;;5015006;28;20156;-72
2023/08/06 12:42:46;;;;;;;1.05;0.40;;;14.30;76.40;;;;;;5014512;28;20030;-71
2023/08/06 12:45:12;;;;;;;0.70;0.70;;;14.40;76.00;;;;;;5014539;28;20037;-72